sensor_id;sensor_type;location;lat;lon;timestamp;temperature;humidity
8214;DHT22;4148;47.974;7.824;2022-11-10T00:02:07;11.70;99.90
8214;DHT22;4148;47.974;7.824;2022-11-10T00:04:35;11.70;99.90
8214;DHT22;4148;47.974;7.824;2022-11-10T00:07:03;11.50;99.90
8214;DHT22;4148;47.974;7.824;2022-11-10T00:09:32;11.60;99.90
8214;DHT22;4148;47.974;7.824;2022-11-10T00:12:00;11.50;99.90
8214;DHT22;4148;47.974;7.824;2022-11-10T00:14:28;11.40;99.90
8214;DHT22;4148;47.974;7.824;2022-11-10T00:17:14;11.40;99.90
8214;DHT22;4148;47.974;7.824;2022-11-10T00:19:42;11.40;99.90
8214;DHT22;4148;47.974;7.824;2022-11-10T00:22:09;11.30;99.90
8214;DHT22;4148;47.974;7.824;2022-11-10T00:24:39;11.30;99.90
8214;DHT22;4148;47.974;7.824;2022-11-10T00:27:06;11.30;99.90
8214;DHT22;4148;47.974;7.824;2022-11-10T00:29:34;11.40;99.90
8214;DHT22;4148;47.974;7.824;2022-11-10T00:32:02;11.40;99.90
8214;DHT22;4148;47.974;7.824;2022-11-10T00:34:30;11.40;99.90
8214;DHT22;4148;47.974;7.824;2022-11-10T00:36:58;11.50;99.90
8214;DHT22;4148;47.974;7.824;2022-11-10T00:39:26;11.40;99.90
8214;DHT22;4148;47.974;7.824;2022-11-10T00:41:55;11.40;99.90
8214;DHT22;4148;47.974;7.824;2022-11-10T00:44:23;11.40;99.90
8214;DHT22;4148;47.974;7.824;2022-11-10T00:46:51;11.50;99.90
8214;DHT22;4148;47.974;7.824;2022-11-10T00:49:19;11.50;99.90
8214;DHT22;4148;47.974;7.824;2022-11-10T00:51:47;11.60;99.90
8214;DHT22;4148;47.974;7.824;2022-11-10T00:54:15;11.60;99.90
8214;DHT22;4148;47.974;7.824;2022-11-10T00:56:43;11.70;99.90
8214;DHT22;4148;47.974;7.824;2022-11-10T00:59:12;11.70;99.90
8214;DHT22;4148;47.974;7.824;2022-11-10T01:01:40;11.70;99.90
8214;DHT22;4148;47.974;7.824;2022-11-10T01:04:08;11.60;99.90
8214;DHT22;4148;47.974;7.824;2022-11-10T01:06:35;11.50;99.90
8214;DHT22;4148;47.974;7.824;2022-11-10T01:09:03;11.50;99.90
8214;DHT22;4148;47.974;7.824;2022-11-10T01:11:31;11.50;99.90
8214;DHT22;4148;47.974;7.824;2022-11-10T01:13:59;11.50;99.90
8214;DHT22;4148;47.974;7.824;2022-11-10T01:16:30;11.40;99.90
8214;DHT22;4148;47.974;7.824;2022-11-10T01:19:00;11.30;99.90
8214;DHT22;4148;47.974;7.824;2022-11-10T01:21:29;11.30;99.90
8214;DHT22;4148;47.974;7.824;2022-11-10T01:23:57;11.20;99.90
8214;DHT22;4148;47.974;7.824;2022-11-10T01:26:25;11.10;99.90
8214;DHT22;4148;47.974;7.824;2022-11-10T01:28:53;10.90;99.90
8214;DHT22;4148;47.974;7.824;2022-11-10T01:31:21;10.90;99.90
8214;DHT22;4148;47.974;7.824;2022-11-10T01:33:50;11.00;99.90
8214;DHT22;4148;47.974;7.824;2022-11-10T01:36:18;10.90;99.90
8214;DHT22;4148;47.974;7.824;2022-11-10T01:38:46;10.80;99.90
8214;DHT22;4148;47.974;7.824;2022-11-10T01:41:14;10.80;99.90
8214;DHT22;4148;47.974;7.824;2022-11-10T01:43:42;10.80;99.90
8214;DHT22;4148;47.974;7.824;2022-11-10T01:46:11;10.70;99.90
8214;DHT22;4148;47.974;7.824;2022-11-10T01:48:43;10.70;99.90
8214;DHT22;4148;47.974;7.824;2022-11-10T01:51:17;10.60;99.90
8214;DHT22;4148;47.974;7.824;2022-11-10T01:53:48;10.60;99.90
8214;DHT22;4148;47.974;7.824;2022-11-10T02:01:17;10.60;99.90
8214;DHT22;4148;47.974;7.824;2022-11-10T02:03:48;10.60;99.90
8214;DHT22;4148;47.974;7.824;2022-11-10T02:06:21;10.40;99.90
8214;DHT22;4148;47.974;7.824;2022-11-10T02:08:49;10.40;99.90
8214;DHT22;4148;47.974;7.824;2022-11-10T02:11:17;10.30;99.90
8214;DHT22;4148;47.974;7.824;2022-11-10T02:13:46;10.20;99.90
8214;DHT22;4148;47.974;7.824;2022-11-10T02:16:14;10.10;99.90
8214;DHT22;4148;47.974;7.824;2022-11-10T02:18:42;10.10;99.90
8214;DHT22;4148;47.974;7.824;2022-11-10T02:21:15;10.10;99.90
8214;DHT22;4148;47.974;7.824;2022-11-10T02:23:45;10.00;99.90
8214;DHT22;4148;47.974;7.824;2022-11-10T02:26:15;9.90;99.90
8214;DHT22;4148;47.974;7.824;2022-11-10T02:28:44;9.90;99.90
8214;DHT22;4148;47.974;7.824;2022-11-10T02:31:12;9.90;99.90
8214;DHT22;4148;47.974;7.824;2022-11-10T02:33:39;9.70;99.90
8214;DHT22;4148;47.974;7.824;2022-11-10T02:51:00;9.50;99.90
8214;DHT22;4148;47.974;7.824;2022-11-10T02:53:28;9.60;99.90
8214;DHT22;4148;47.974;7.824;2022-11-10T02:55:57;9.60;99.90
8214;DHT22;4148;47.974;7.824;2022-11-10T02:58:25;9.50;99.90
8214;DHT22;4148;47.974;7.824;2022-11-10T03:00:53;9.50;99.90
8214;DHT22;4148;47.974;7.824;2022-11-10T03:03:21;9.40;99.90
8214;DHT22;4148;47.974;7.824;2022-11-10T03:05:50;9.50;99.90
8214;DHT22;4148;47.974;7.824;2022-11-10T03:08:17;9.40;99.90
8214;DHT22;4148;47.974;7.824;2022-11-10T03:10:45;9.50;99.90
8214;DHT22;4148;47.974;7.824;2022-11-10T03:13:14;9.50;99.90
8214;DHT22;4148;47.974;7.824;2022-11-10T03:15:42;9.50;99.90
8214;DHT22;4148;47.974;7.824;2022-11-10T03:18:10;9.50;99.90
8214;DHT22;4148;47.974;7.824;2022-11-10T03:20:39;9.40;99.90
8214;DHT22;4148;47.974;7.824;2022-11-10T03:23:07;9.30;99.90
8214;DHT22;4148;47.974;7.824;2022-11-10T03:25:35;9.30;99.90
8214;DHT22;4148;47.974;7.824;2022-11-10T03:28:04;9.20;99.90
8214;DHT22;4148;47.974;7.824;2022-11-10T03:30:33;9.30;99.90
8214;DHT22;4148;47.974;7.824;2022-11-10T03:33:01;9.40;99.90
8214;DHT22;4148;47.974;7.824;2022-11-10T03:35:29;9.30;99.90
8214;DHT22;4148;47.974;7.824;2022-11-10T03:37:57;9.20;99.90
8214;DHT22;4148;47.974;7.824;2022-11-10T03:40:25;9.20;99.90
8214;DHT22;4148;47.974;7.824;2022-11-10T03:42:53;9.10;99.90
8214;DHT22;4148;47.974;7.824;2022-11-10T03:45:20;9.10;99.90
8214;DHT22;4148;47.974;7.824;2022-11-10T03:47:50;9.20;99.90
8214;DHT22;4148;47.974;7.824;2022-11-10T03:50:18;9.30;99.90
8214;DHT22;4148;47.974;7.824;2022-11-10T03:52:46;9.30;99.90
8214;DHT22;4148;47.974;7.824;2022-11-10T03:55:16;9.40;99.90
8214;DHT22;4148;47.974;7.824;2022-11-10T03:57:44;9.40;99.90
8214;DHT22;4148;47.974;7.824;2022-11-10T04:00:13;9.30;99.90
8214;DHT22;4148;47.974;7.824;2022-11-10T04:02:41;9.20;99.90
8214;DHT22;4148;47.974;7.824;2022-11-10T04:05:10;9.10;99.90
8214;DHT22;4148;47.974;7.824;2022-11-10T04:07:57;9.00;99.90
8214;DHT22;4148;47.974;7.824;2022-11-10T04:10:43;8.90;99.90
8214;DHT22;4148;47.974;7.824;2022-11-10T04:13:11;9.00;99.90
8214;DHT22;4148;47.974;7.824;2022-11-10T04:15:57;9.00;99.90
8214;DHT22;4148;47.974;7.824;2022-11-10T04:18:24;8.90;99.90
8214;DHT22;4148;47.974;7.824;2022-11-10T04:20:57;9.00;99.90
8214;DHT22;4148;47.974;7.824;2022-11-10T04:23:27;9.10;99.90
8214;DHT22;4148;47.974;7.824;2022-11-10T04:25:58;9.10;99.90
8214;DHT22;4148;47.974;7.824;2022-11-10T04:28:45;9.10;99.90
8214;DHT22;4148;47.974;7.824;2022-11-10T04:31:14;9.10;99.90
8214;DHT22;4148;47.974;7.824;2022-11-10T04:33:43;9.00;99.90
8214;DHT22;4148;47.974;7.824;2022-11-10T04:36:14;9.00;99.90
8214;DHT22;4148;47.974;7.824;2022-11-10T04:38:44;8.90;99.90
8214;DHT22;4148;47.974;7.824;2022-11-10T04:41:12;9.00;99.90
8214;DHT22;4148;47.974;7.824;2022-11-10T04:43:40;8.90;99.90
8214;DHT22;4148;47.974;7.824;2022-11-10T04:46:17;8.90;99.90
8214;DHT22;4148;47.974;7.824;2022-11-10T04:48:46;8.90;99.90
8214;DHT22;4148;47.974;7.824;2022-11-10T04:51:16;8.70;99.90
8214;DHT22;4148;47.974;7.824;2022-11-10T04:53:45;8.70;99.90
8214;DHT22;4148;47.974;7.824;2022-11-10T04:56:13;8.60;99.90
8214;DHT22;4148;47.974;7.824;2022-11-10T04:58:42;8.60;99.90
8214;DHT22;4148;47.974;7.824;2022-11-10T05:01:11;8.70;99.90
8214;DHT22;4148;47.974;7.824;2022-11-10T05:03:39;8.70;99.90
8214;DHT22;4148;47.974;7.824;2022-11-10T05:06:07;8.60;99.90
8214;DHT22;4148;47.974;7.824;2022-11-10T05:08:38;8.60;99.90
8214;DHT22;4148;47.974;7.824;2022-11-10T05:11:07;8.50;99.90
8214;DHT22;4148;47.974;7.824;2022-11-10T05:13:35;8.40;99.90
8214;DHT22;4148;47.974;7.824;2022-11-10T05:16:04;8.30;99.90
8214;DHT22;4148;47.974;7.824;2022-11-10T05:18:32;8.30;99.90
8214;DHT22;4148;47.974;7.824;2022-11-10T05:21:00;8.30;99.90
8214;DHT22;4148;47.974;7.824;2022-11-10T05:23:28;8.30;99.90
8214;DHT22;4148;47.974;7.824;2022-11-10T05:26:08;8.30;99.90
8214;DHT22;4148;47.974;7.824;2022-11-10T05:28:36;8.30;99.90
8214;DHT22;4148;47.974;7.824;2022-11-10T05:31:05;8.30;99.90
8214;DHT22;4148;47.974;7.824;2022-11-10T05:33:34;8.20;99.90
8214;DHT22;4148;47.974;7.824;2022-11-10T05:36:03;8.30;99.90
8214;DHT22;4148;47.974;7.824;2022-11-10T05:38:31;8.20;99.90
8214;DHT22;4148;47.974;7.824;2022-11-10T05:41:02;8.20;99.90
8214;DHT22;4148;47.974;7.824;2022-11-10T05:43:31;8.30;99.90
8214;DHT22;4148;47.974;7.824;2022-11-10T05:45:59;8.30;99.90
8214;DHT22;4148;47.974;7.824;2022-11-10T05:48:27;8.40;99.90
8214;DHT22;4148;47.974;7.824;2022-11-10T05:50:56;8.50;99.90
8214;DHT22;4148;47.974;7.824;2022-11-10T05:53:23;8.50;99.90
8214;DHT22;4148;47.974;7.824;2022-11-10T05:55:52;8.40;99.90
8214;DHT22;4148;47.974;7.824;2022-11-10T05:58:20;8.30;99.90
8214;DHT22;4148;47.974;7.824;2022-11-10T06:00:49;8.20;99.90
8214;DHT22;4148;47.974;7.824;2022-11-10T06:03:18;8.10;99.90
8214;DHT22;4148;47.974;7.824;2022-11-10T06:05:47;8.10;99.90
8214;DHT22;4148;47.974;7.824;2022-11-10T06:08:15;8.00;99.90
8214;DHT22;4148;47.974;7.824;2022-11-10T06:10:43;8.10;99.90
8214;DHT22;4148;47.974;7.824;2022-11-10T06:13:11;8.30;99.90
8214;DHT22;4148;47.974;7.824;2022-11-10T06:15:39;8.40;99.90
8214;DHT22;4148;47.974;7.824;2022-11-10T06:18:16;8.30;99.90
8214;DHT22;4148;47.974;7.824;2022-11-10T06:20:44;8.30;99.90
8214;DHT22;4148;47.974;7.824;2022-11-10T06:23:13;8.20;99.90
8214;DHT22;4148;47.974;7.824;2022-11-10T06:25:41;8.00;99.90
8214;DHT22;4148;47.974;7.824;2022-11-10T06:28:09;7.90;99.90
8214;DHT22;4148;47.974;7.824;2022-11-10T06:30:37;7.80;99.90
8214;DHT22;4148;47.974;7.824;2022-11-10T06:33:05;7.80;99.90
8214;DHT22;4148;47.974;7.824;2022-11-10T06:35:34;7.60;99.90
8214;DHT22;4148;47.974;7.824;2022-11-10T06:38:04;7.50;99.90
8214;DHT22;4148;47.974;7.824;2022-11-10T06:40:32;7.40;99.90
8214;DHT22;4148;47.974;7.824;2022-11-10T06:43:00;7.40;99.90
8214;DHT22;4148;47.974;7.824;2022-11-10T06:45:28;7.40;99.90
8214;DHT22;4148;47.974;7.824;2022-11-10T06:48:00;7.50;99.90
8214;DHT22;4148;47.974;7.824;2022-11-10T06:50:28;7.60;99.90
8214;DHT22;4148;47.974;7.824;2022-11-10T06:52:58;7.50;99.90
8214;DHT22;4148;47.974;7.824;2022-11-10T06:55:27;7.50;99.90
8214;DHT22;4148;47.974;7.824;2022-11-10T06:57:55;7.50;99.90
8214;DHT22;4148;47.974;7.824;2022-11-10T07:00:23;7.70;99.90
8214;DHT22;4148;47.974;7.824;2022-11-10T07:02:58;7.50;99.90
8214;DHT22;4148;47.974;7.824;2022-11-10T07:05:26;7.40;99.90
8214;DHT22;4148;47.974;7.824;2022-11-10T07:07:54;7.50;99.90
8214;DHT22;4148;47.974;7.824;2022-11-10T07:10:23;7.60;99.90
8214;DHT22;4148;47.974;7.824;2022-11-10T07:12:55;7.60;99.90
8214;DHT22;4148;47.974;7.824;2022-11-10T07:15:23;7.80;99.90
8214;DHT22;4148;47.974;7.824;2022-11-10T07:17:51;7.70;99.90
8214;DHT22;4148;47.974;7.824;2022-11-10T07:20:19;7.60;99.90
8214;DHT22;4148;47.974;7.824;2022-11-10T07:22:48;7.50;99.90
8214;DHT22;4148;47.974;7.824;2022-11-10T07:25:16;7.50;99.90
8214;DHT22;4148;47.974;7.824;2022-11-10T07:27:45;7.60;99.90
8214;DHT22;4148;47.974;7.824;2022-11-10T07:30:13;7.70;99.90
8214;DHT22;4148;47.974;7.824;2022-11-10T07:32:41;7.80;99.90
8214;DHT22;4148;47.974;7.824;2022-11-10T07:35:08;7.70;99.90
8214;DHT22;4148;47.974;7.824;2022-11-10T07:37:36;7.80;99.90
8214;DHT22;4148;47.974;7.824;2022-11-10T07:40:05;7.70;99.90
8214;DHT22;4148;47.974;7.824;2022-11-10T07:42:38;7.70;99.90
8214;DHT22;4148;47.974;7.824;2022-11-10T07:45:08;7.80;99.90
8214;DHT22;4148;47.974;7.824;2022-11-10T07:47:36;7.90;99.90
8214;DHT22;4148;47.974;7.824;2022-11-10T07:50:05;8.10;99.90
8214;DHT22;4148;47.974;7.824;2022-11-10T07:52:33;8.20;99.90
8214;DHT22;4148;47.974;7.824;2022-11-10T07:55:01;8.20;99.90
8214;DHT22;4148;47.974;7.824;2022-11-10T07:57:29;8.30;99.90
8214;DHT22;4148;47.974;7.824;2022-11-10T07:59:57;8.40;99.90
8214;DHT22;4148;47.974;7.824;2022-11-10T08:02:27;8.40;99.90
8214;DHT22;4148;47.974;7.824;2022-11-10T08:04:54;8.50;99.90
8214;DHT22;4148;47.974;7.824;2022-11-10T08:07:22;8.50;99.90
8214;DHT22;4148;47.974;7.824;2022-11-10T08:09:50;8.50;99.90
8214;DHT22;4148;47.974;7.824;2022-11-10T08:12:18;8.60;99.90
8214;DHT22;4148;47.974;7.824;2022-11-10T08:14:46;8.70;99.90
8214;DHT22;4148;47.974;7.824;2022-11-10T08:17:14;8.80;99.90
8214;DHT22;4148;47.974;7.824;2022-11-10T08:19:43;8.90;99.90
8214;DHT22;4148;47.974;7.824;2022-11-10T08:22:11;9.00;99.90
8214;DHT22;4148;47.974;7.824;2022-11-10T08:24:39;9.10;99.90
8214;DHT22;4148;47.974;7.824;2022-11-10T08:27:07;9.20;99.90
8214;DHT22;4148;47.974;7.824;2022-11-10T08:29:35;9.30;99.90
8214;DHT22;4148;47.974;7.824;2022-11-10T08:32:03;9.40;99.90
8214;DHT22;4148;47.974;7.824;2022-11-10T08:34:31;9.70;99.90
8214;DHT22;4148;47.974;7.824;2022-11-10T08:37:01;9.80;99.90
8214;DHT22;4148;47.974;7.824;2022-11-10T08:39:28;9.90;99.90
8214;DHT22;4148;47.974;7.824;2022-11-10T08:42:05;9.90;99.90
8214;DHT22;4148;47.974;7.824;2022-11-10T08:44:33;10.00;99.90
8214;DHT22;4148;47.974;7.824;2022-11-10T08:47:01;10.20;99.90
8214;DHT22;4148;47.974;7.824;2022-11-10T08:49:28;10.30;99.90
8214;DHT22;4148;47.974;7.824;2022-11-10T08:51:56;10.40;99.90
8214;DHT22;4148;47.974;7.824;2022-11-10T08:54:25;10.50;99.90
8214;DHT22;4148;47.974;7.824;2022-11-10T08:56:53;10.50;99.90
8214;DHT22;4148;47.974;7.824;2022-11-10T08:59:21;10.70;99.90
8214;DHT22;4148;47.974;7.824;2022-11-10T09:01:49;10.70;99.90
8214;DHT22;4148;47.974;7.824;2022-11-10T09:04:17;10.70;99.90
8214;DHT22;4148;47.974;7.824;2022-11-10T09:06:45;10.90;99.90
8214;DHT22;4148;47.974;7.824;2022-11-10T09:09:13;11.20;99.90
8214;DHT22;4148;47.974;7.824;2022-11-10T09:11:42;11.40;99.90
8214;DHT22;4148;47.974;7.824;2022-11-10T09:14:10;11.60;99.90
8214;DHT22;4148;47.974;7.824;2022-11-10T09:16:38;11.90;99.90
8214;DHT22;4148;47.974;7.824;2022-11-10T09:19:06;12.30;99.90
8214;DHT22;4148;47.974;7.824;2022-11-10T09:21:33;12.50;99.90
8214;DHT22;4148;47.974;7.824;2022-11-10T09:24:01;12.90;99.90
8214;DHT22;4148;47.974;7.824;2022-11-10T09:26:30;13.20;99.90
8214;DHT22;4148;47.974;7.824;2022-11-10T09:29:00;13.40;99.90
8214;DHT22;4148;47.974;7.824;2022-11-10T09:31:28;13.70;99.90
8214;DHT22;4148;47.974;7.824;2022-11-10T09:33:56;13.90;99.90
8214;DHT22;4148;47.974;7.824;2022-11-10T09:36:24;13.90;99.90
8214;DHT22;4148;47.974;7.824;2022-11-10T09:38:52;14.10;99.90
8214;DHT22;4148;47.974;7.824;2022-11-10T09:41:20;14.20;99.90
8214;DHT22;4148;47.974;7.824;2022-11-10T09:43:58;14.30;99.90
8214;DHT22;4148;47.974;7.824;2022-11-10T09:46:33;14.50;99.90
8214;DHT22;4148;47.974;7.824;2022-11-10T09:49:09;14.60;99.90
8214;DHT22;4148;47.974;7.824;2022-11-10T09:51:40;14.90;99.90
8214;DHT22;4148;47.974;7.824;2022-11-10T09:54:25;15.00;99.90
8214;DHT22;4148;47.974;7.824;2022-11-10T09:56:57;15.10;99.90
8214;DHT22;4148;47.974;7.824;2022-11-10T09:59:28;15.10;99.90
8214;DHT22;4148;47.974;7.824;2022-11-10T10:02:03;15.40;99.90
8214;DHT22;4148;47.974;7.824;2022-11-10T10:04:48;15.60;99.90
8214;DHT22;4148;47.974;7.824;2022-11-10T10:07:24;15.60;99.90
8214;DHT22;4148;47.974;7.824;2022-11-10T10:09:59;15.90;99.90
8214;DHT22;4148;47.974;7.824;2022-11-10T10:12:42;16.40;99.90
8214;DHT22;4148;47.974;7.824;2022-11-10T10:15:20;16.30;99.90
8214;DHT22;4148;47.974;7.824;2022-11-10T10:18:01;16.40;99.90
8214;DHT22;4148;47.974;7.824;2022-11-10T10:20:38;16.40;99.90
8214;DHT22;4148;47.974;7.824;2022-11-10T10:23:16;16.80;99.90
8214;DHT22;4148;47.974;7.824;2022-11-10T10:26:10;17.00;99.90
8214;DHT22;4148;47.974;7.824;2022-11-10T10:28:43;16.80;99.90
8214;DHT22;4148;47.974;7.824;2022-11-10T10:31:16;17.10;99.90
8214;DHT22;4148;47.974;7.824;2022-11-10T10:33:46;17.30;99.90
8214;DHT22;4148;47.974;7.824;2022-11-10T10:36:17;17.50;99.90
8214;DHT22;4148;47.974;7.824;2022-11-10T10:38:49;17.60;99.90
8214;DHT22;4148;47.974;7.824;2022-11-10T10:41:23;17.40;99.90
8214;DHT22;4148;47.974;7.824;2022-11-10T10:43:53;17.40;99.90
8214;DHT22;4148;47.974;7.824;2022-11-10T10:46:22;17.30;99.90
8214;DHT22;4148;47.974;7.824;2022-11-10T10:49:13;17.30;99.90
8214;DHT22;4148;47.974;7.824;2022-11-10T10:52:02;17.40;99.90
8214;DHT22;4148;47.974;7.824;2022-11-10T10:54:32;17.60;99.90
8214;DHT22;4148;47.974;7.824;2022-11-10T10:57:06;17.70;99.90
8214;DHT22;4148;47.974;7.824;2022-11-10T10:59:42;17.80;99.90
8214;DHT22;4148;47.974;7.824;2022-11-10T11:02:23;17.70;99.90
8214;DHT22;4148;47.974;7.824;2022-11-10T11:05:09;17.60;99.90
8214;DHT22;4148;47.974;7.824;2022-11-10T11:07:38;17.80;99.90
8214;DHT22;4148;47.974;7.824;2022-11-10T11:10:20;17.80;99.90
8214;DHT22;4148;47.974;7.824;2022-11-10T11:12:49;18.00;99.90
8214;DHT22;4148;47.974;7.824;2022-11-10T11:17:57;18.60;99.90
8214;DHT22;4148;47.974;7.824;2022-11-10T11:23:02;19.40;99.90
8214;DHT22;4148;47.974;7.824;2022-11-10T11:25:38;19.60;99.90
8214;DHT22;4148;47.974;7.824;2022-11-10T11:28:15;19.40;99.90
8214;DHT22;4148;47.974;7.824;2022-11-10T11:30:54;19.20;99.90
8214;DHT22;4148;47.974;7.824;2022-11-10T11:33:32;18.90;99.90
8214;DHT22;4148;47.974;7.824;2022-11-10T11:36:11;18.40;99.90
8214;DHT22;4148;47.974;7.824;2022-11-10T11:38:50;18.30;99.90
8214;DHT22;4148;47.974;7.824;2022-11-10T11:41:28;18.40;99.90
8214;DHT22;4148;47.974;7.824;2022-11-10T11:44:25;18.70;99.90
8214;DHT22;4148;47.974;7.824;2022-11-10T11:47:05;19.00;99.90
8214;DHT22;4148;47.974;7.824;2022-11-10T11:49:46;19.40;99.90
8214;DHT22;4148;47.974;7.824;2022-11-10T11:52:22;19.50;99.90
8214;DHT22;4148;47.974;7.824;2022-11-10T11:58:00;19.30;99.90
8214;DHT22;4148;47.974;7.824;2022-11-10T12:00:40;19.30;99.90
8214;DHT22;4148;47.974;7.824;2022-11-10T12:03:28;19.10;99.90
8214;DHT22;4148;47.974;7.824;2022-11-10T12:06:11;19.00;99.90
8214;DHT22;4148;47.974;7.824;2022-11-10T12:08:52;18.50;99.90
8214;DHT22;4148;47.974;7.824;2022-11-10T12:11:31;18.10;99.90
8214;DHT22;4148;47.974;7.824;2022-11-10T12:14:06;17.80;99.90
8214;DHT22;4148;47.974;7.824;2022-11-10T12:16:40;17.50;99.90
8214;DHT22;4148;47.974;7.824;2022-11-10T12:19:19;17.40;99.90
8214;DHT22;4148;47.974;7.824;2022-11-10T12:21:54;17.30;99.90
8214;DHT22;4148;47.974;7.824;2022-11-10T12:24:41;17.00;99.90
8214;DHT22;4148;47.974;7.824;2022-11-10T12:27:13;17.00;99.90
8214;DHT22;4148;47.974;7.824;2022-11-10T12:29:46;16.80;99.90
8214;DHT22;4148;47.974;7.824;2022-11-10T12:32:20;16.70;99.90
8214;DHT22;4148;47.974;7.824;2022-11-10T12:34:52;16.60;99.90
8214;DHT22;4148;47.974;7.824;2022-11-10T12:37:27;16.30;99.90
8214;DHT22;4148;47.974;7.824;2022-11-10T12:40:01;16.30;99.90
8214;DHT22;4148;47.974;7.824;2022-11-10T12:42:30;16.20;99.90
8214;DHT22;4148;47.974;7.824;2022-11-10T12:45:01;16.10;99.90
8214;DHT22;4148;47.974;7.824;2022-11-10T12:47:34;16.10;99.90
8214;DHT22;4148;47.974;7.824;2022-11-10T12:50:18;15.80;99.90
8214;DHT22;4148;47.974;7.824;2022-11-10T12:52:52;15.60;99.90
8214;DHT22;4148;47.974;7.824;2022-11-10T12:55:30;15.60;99.90
8214;DHT22;4148;47.974;7.824;2022-11-10T12:57:58;15.50;99.90
8214;DHT22;4148;47.974;7.824;2022-11-10T13:00:29;15.40;99.90
8214;DHT22;4148;47.974;7.824;2022-11-10T13:02:58;15.40;99.90
8214;DHT22;4148;47.974;7.824;2022-11-10T13:05:36;15.30;99.90
8214;DHT22;4148;47.974;7.824;2022-11-10T13:08:22;15.30;99.90
8214;DHT22;4148;47.974;7.824;2022-11-10T13:10:56;15.20;99.90
8214;DHT22;4148;47.974;7.824;2022-11-10T13:13:27;15.00;99.90
8214;DHT22;4148;47.974;7.824;2022-11-10T13:15:55;14.90;99.90
8214;DHT22;4148;47.974;7.824;2022-11-10T13:18:51;14.90;99.90
8214;DHT22;4148;47.974;7.824;2022-11-10T13:22:06;14.70;99.90
8214;DHT22;4148;47.974;7.824;2022-11-10T13:24:36;14.70;99.90
8214;DHT22;4148;47.974;7.824;2022-11-10T13:27:09;14.50;99.90
8214;DHT22;4148;47.974;7.824;2022-11-10T13:29:54;14.50;99.90
8214;DHT22;4148;47.974;7.824;2022-11-10T13:32:27;14.40;99.90
8214;DHT22;4148;47.974;7.824;2022-11-10T13:37:57;14.30;99.90
8214;DHT22;4148;47.974;7.824;2022-11-10T13:40:33;14.20;99.90
8214;DHT22;4148;47.974;7.824;2022-11-10T13:43:22;14.20;99.90
8214;DHT22;4148;47.974;7.824;2022-11-10T13:46:04;14.10;99.90
8214;DHT22;4148;47.974;7.824;2022-11-10T13:51:47;14.20;99.90
8214;DHT22;4148;47.974;7.824;2022-11-10T13:54:38;14.20;99.90
8214;DHT22;4148;47.974;7.824;2022-11-10T13:57:27;14.20;99.90
8214;DHT22;4148;47.974;7.824;2022-11-10T13:59:58;14.20;99.90
8214;DHT22;4148;47.974;7.824;2022-11-10T14:02:48;14.20;99.90
8214;DHT22;4148;47.974;7.824;2022-11-10T14:08:46;14.10;99.90
8214;DHT22;4148;47.974;7.824;2022-11-10T14:11:20;14.10;99.90
8214;DHT22;4148;47.974;7.824;2022-11-10T14:13:55;14.10;99.90
8214;DHT22;4148;47.974;7.824;2022-11-10T14:16:26;14.10;99.90
8214;DHT22;4148;47.974;7.824;2022-11-10T14:18:58;14.10;99.90
8214;DHT22;4148;47.974;7.824;2022-11-10T14:21:32;14.00;99.90
8214;DHT22;4148;47.974;7.824;2022-11-10T14:24:09;14.00;99.90
8214;DHT22;4148;47.974;7.824;2022-11-10T14:31:59;14.00;99.90
8214;DHT22;4148;47.974;7.824;2022-11-10T14:34:28;14.00;99.90
8214;DHT22;4148;47.974;7.824;2022-11-10T14:36:58;13.90;99.90
8214;DHT22;4148;47.974;7.824;2022-11-10T14:39:28;13.80;99.90
8214;DHT22;4148;47.974;7.824;2022-11-10T14:42:00;13.80;99.90
8214;DHT22;4148;47.974;7.824;2022-11-10T14:44:30;13.80;99.90
8214;DHT22;4148;47.974;7.824;2022-11-10T14:47:23;13.80;99.90
8214;DHT22;4148;47.974;7.824;2022-11-10T14:50:10;13.80;99.90
8214;DHT22;4148;47.974;7.824;2022-11-10T14:52:43;13.80;99.90
8214;DHT22;4148;47.974;7.824;2022-11-10T14:55:16;13.70;99.90
8214;DHT22;4148;47.974;7.824;2022-11-10T14:57:50;13.70;99.90
8214;DHT22;4148;47.974;7.824;2022-11-10T15:00:22;13.70;99.90
8214;DHT22;4148;47.974;7.824;2022-11-10T15:02:55;13.70;99.90
8214;DHT22;4148;47.974;7.824;2022-11-10T15:05:24;13.70;99.90
8214;DHT22;4148;47.974;7.824;2022-11-10T15:07:53;13.70;99.90
8214;DHT22;4148;47.974;7.824;2022-11-10T15:10:23;13.60;99.90
8214;DHT22;4148;47.974;7.824;2022-11-10T15:13:02;13.60;99.90
8214;DHT22;4148;47.974;7.824;2022-11-10T15:15:31;13.50;99.90
8214;DHT22;4148;47.974;7.824;2022-11-10T15:18:00;13.50;99.90
8214;DHT22;4148;47.974;7.824;2022-11-10T15:20:31;13.40;99.90
8214;DHT22;4148;47.974;7.824;2022-11-10T15:23:01;13.40;99.90
8214;DHT22;4148;47.974;7.824;2022-11-10T15:25:35;13.20;99.90
8214;DHT22;4148;47.974;7.824;2022-11-10T15:28:11;13.10;99.90
8214;DHT22;4148;47.974;7.824;2022-11-10T15:30:48;13.10;99.90
8214;DHT22;4148;47.974;7.824;2022-11-10T15:33:26;13.00;99.90
8214;DHT22;4148;47.974;7.824;2022-11-10T15:36:11;12.90;99.90
8214;DHT22;4148;47.974;7.824;2022-11-10T15:38:39;12.90;99.90
8214;DHT22;4148;47.974;7.824;2022-11-10T15:41:13;12.90;99.90
8214;DHT22;4148;47.974;7.824;2022-11-10T15:43:41;12.90;99.90
8214;DHT22;4148;47.974;7.824;2022-11-10T15:46:14;12.90;99.90
8214;DHT22;4148;47.974;7.824;2022-11-10T15:48:47;12.80;99.90
8214;DHT22;4148;47.974;7.824;2022-11-10T15:51:16;12.80;99.90
8214;DHT22;4148;47.974;7.824;2022-11-10T15:53:52;12.80;99.90
8214;DHT22;4148;47.974;7.824;2022-11-10T15:56:22;12.70;99.90
8214;DHT22;4148;47.974;7.824;2022-11-10T15:58:51;12.60;99.90
8214;DHT22;4148;47.974;7.824;2022-11-10T16:01:26;12.60;99.90
8214;DHT22;4148;47.974;7.824;2022-11-10T16:03:55;12.50;99.90
8214;DHT22;4148;47.974;7.824;2022-11-10T16:06:23;12.40;99.90
8214;DHT22;4148;47.974;7.824;2022-11-10T16:08:52;12.40;99.90
8214;DHT22;4148;47.974;7.824;2022-11-10T16:11:20;12.40;99.90
8214;DHT22;4148;47.974;7.824;2022-11-10T16:13:50;12.40;99.90
8214;DHT22;4148;47.974;7.824;2022-11-10T16:16:18;12.50;99.90
8214;DHT22;4148;47.974;7.824;2022-11-10T16:18:49;12.40;99.90
8214;DHT22;4148;47.974;7.824;2022-11-10T16:21:20;12.20;99.90
8214;DHT22;4148;47.974;7.824;2022-11-10T16:23:48;12.20;99.90
8214;DHT22;4148;47.974;7.824;2022-11-10T16:26:18;12.10;99.90
8214;DHT22;4148;47.974;7.824;2022-11-10T16:28:48;12.00;99.90
8214;DHT22;4148;47.974;7.824;2022-11-10T16:31:18;11.90;99.90
8214;DHT22;4148;47.974;7.824;2022-11-10T16:33:48;11.80;99.90
8214;DHT22;4148;47.974;7.824;2022-11-10T16:36:23;11.80;99.90
8214;DHT22;4148;47.974;7.824;2022-11-10T16:38:51;11.80;99.90
8214;DHT22;4148;47.974;7.824;2022-11-10T16:41:21;11.80;99.90
8214;DHT22;4148;47.974;7.824;2022-11-10T16:43:49;11.80;99.90
8214;DHT22;4148;47.974;7.824;2022-11-10T16:46:19;11.70;99.90
8214;DHT22;4148;47.974;7.824;2022-11-10T16:48:49;11.60;99.90
8214;DHT22;4148;47.974;7.824;2022-11-10T16:51:26;11.50;99.90
8214;DHT22;4148;47.974;7.824;2022-11-10T16:53:54;11.40;99.90
8214;DHT22;4148;47.974;7.824;2022-11-10T16:56:22;11.30;99.90
8214;DHT22;4148;47.974;7.824;2022-11-10T16:58:52;11.20;99.90
8214;DHT22;4148;47.974;7.824;2022-11-10T17:01:22;11.30;99.90
8214;DHT22;4148;47.974;7.824;2022-11-10T17:18:48;11.00;99.90
8214;DHT22;4148;47.974;7.824;2022-11-10T17:21:17;10.80;99.90
8214;DHT22;4148;47.974;7.824;2022-11-10T17:23:47;10.80;99.90
8214;DHT22;4148;47.974;7.824;2022-11-10T17:26:16;10.90;99.90
8214;DHT22;4148;47.974;7.824;2022-11-10T17:28:44;10.90;99.90
8214;DHT22;4148;47.974;7.824;2022-11-10T17:31:12;10.90;99.90
8214;DHT22;4148;47.974;7.824;2022-11-10T17:33:41;10.90;99.90